Time;durP1;ratioP1;P1;durP2;ratioP2;P2;SDS_P1;SDS_P2;PMS_P1;PMS_P2;Temp;Humidity;BMP_temperature;BMP_pressure;BME280_temperature;BME280_humidity;BME280_pressure;Samples;Min_cycle;Max_cycle;Signal;HPM_P1;HPM_P2
2021/04/11 00:01:15;;;;;;;8.00;2.73;;;3.60;88.90;;;;;;5035243;28;20648;-84
2021/04/11 00:03:40;;;;;;;4.00;1.47;;;3.60;88.90;;;;;;5035251;28;20178;-84
2021/04/11 00:06:06;;;;;;;2.30;2.13;;;3.70;88.90;;;;;;5035130;28;20720;-84
2021/04/11 00:08:31;;;;;;;7.13;2.07;;;3.70;88.80;;;;;;5035134;28;20283;-84
2021/04/11 00:11:02;;;;;;;8.10;2.17;;;3.70;89.00;;;;;;5035255;28;20185;-85
2021/04/11 00:13:34;;;;;;;9.47;3.50;;;3.70;89.80;;;;;;5035177;28;20697;-84
2021/04/11 00:16:00;;;;;;;6.87;3.10;;;3.80;89.90;;;;;;5038677;28;20219;-84
2021/04/11 00:18:26;;;;;;;1.80;1.67;;;3.70;90.10;;;;;;5057202;28;20206;-84
2021/04/11 00:20:52;;;;;;;6.47;2.93;;;3.70;90.20;;;;;;5057158;28;20190;-84
2021/04/11 00:23:20;;;;;;;4.07;2.70;;;3.80;90.40;;;;;;5039189;28;20293;-85
2021/04/11 00:25:46;;;;;;;3.03;2.27;;;3.80;90.60;;;;;;5039063;28;20209;-84
2021/04/11 00:28:14;;;;;;;3.00;2.13;;;3.80;90.60;;;;;;5039010;28;20232;-85
2021/04/11 00:30:40;;;;;;;1.63;1.53;;;3.80;90.90;;;;;;5057120;28;20176;-85
2021/04/11 00:33:07;;;;;;;2.13;2.03;;;3.80;91.00;;;;;;5039334;28;20597;-85
2021/04/11 00:35:33;;;;;;;2.70;2.13;;;3.80;91.20;;;;;;5056855;28;20202;-85
2021/04/11 00:37:59;;;;;;;2.33;2.13;;;3.90;91.40;;;;;;5056908;28;20674;-85
2021/04/11 00:40:32;;;;;;;4.60;2.80;;;3.90;91.40;;;;;;5038817;28;20185;-83
2021/04/11 00:43:02;;;;;;;4.03;3.60;;;4.00;91.80;;;;;;5038770;28;20187;-84
2021/04/11 00:45:35;;;;;;;3.70;2.03;;;4.00;92.00;;;;;;5038665;28;20220;-84
2021/04/11 00:48:02;;;;;;;3.57;2.30;;;4.00;92.00;;;;;;5038656;28;20199;-84
2021/04/11 00:50:27;;;;;;;9.80;2.63;;;4.00;92.10;;;;;;5056602;28;20546;-84
2021/04/11 00:52:53;;;;;;;8.33;4.43;;;4.00;92.20;;;;;;5056463;28;20172;-84
2021/04/11 00:55:24;;;;;;;7.93;4.00;;;4.00;92.50;;;;;;5038601;28;20187;-85
2021/04/11 00:57:51;;;;;;;3.40;2.57;;;4.00;92.60;;;;;;5038490;28;20205;-84
2021/04/11 01:00:18;;;;;;;10.33;5.50;;;4.00;92.60;;;;;;5056378;28;20180;-84
2021/04/11 01:02:44;;;;;;;5.30;2.60;;;4.00;92.70;;;;;;5056137;28;20265;-85
2021/04/11 01:05:22;;;;;;;7.27;4.60;;;4.00;92.80;;;;;;5056426;28;20282;-84
2021/04/11 01:07:50;;;;;;;5.50;4.40;;;4.10;92.90;;;;;;5056405;28;20195;-85
2021/04/11 01:10:20;;;;;;;6.93;4.23;;;4.10;93.00;;;;;;5038254;28;20177;-85
2021/04/11 01:12:46;;;;;;;7.07;4.93;;;4.10;93.10;;;;;;5056524;28;20244;-85
2021/04/11 01:15:27;;;;;;;5.27;3.50;;;4.10;93.20;;;;;;5056100;28;20203;-85
2021/04/11 01:17:53;;;;;;;6.97;4.90;;;4.10;93.40;;;;;;5038061;28;20202;-85
2021/04/11 01:20:20;;;;;;;16.30;8.50;;;4.20;93.40;;;;;;5055969;28;20265;-85
2021/04/11 01:23:01;;;;;;;14.80;8.10;;;4.20;93.50;;;;;;5055875;28;20173;-85
2021/04/11 01:25:31;;;;;;;15.50;8.13;;;4.20;93.60;;;;;;5055739;28;20197;-85
2021/04/11 01:27:58;;;;;;;9.90;7.60;;;4.30;93.70;;;;;;5037898;28;20194;-85
2021/04/11 01:30:34;;;;;;;14.93;8.73;;;4.30;93.70;;;;;;5056108;28;20233;-85
2021/04/11 01:33:03;;;;;;;16.03;9.43;;;4.30;93.70;;;;;;5056020;28;20188;-85
2021/04/11 01:35:29;;;;;;;12.20;7.37;;;4.40;93.80;;;;;;5055768;28;20170;-85
2021/04/11 01:37:57;;;;;;;6.77;4.37;;;4.40;93.90;;;;;;5037834;28;20206;-85
2021/04/11 01:40:37;;;;;;;13.13;8.40;;;4.50;93.90;;;;;;5055952;28;20528;-85
2021/04/11 01:43:05;;;;;;;16.87;9.27;;;4.50;93.90;;;;;;5055618;28;20167;-85
2021/04/11 01:45:34;;;;;;;14.90;9.37;;;4.50;94.00;;;;;;5055470;28;20224;-85
2021/04/11 01:48:00;;;;;;;16.10;8.93;;;4.60;94.00;;;;;;5037428;28;20200;-85
2021/04/11 01:50:26;;;;;;;15.83;8.77;;;4.70;94.10;;;;;;5055349;28;20178;-85
2021/04/11 01:52:52;;;;;;;20.90;11.67;;;4.70;94.10;;;;;;5055384;28;20172;-85
2021/04/11 01:55:19;;;;;;;18.83;11.87;;;4.80;94.10;;;;;;5037510;28;20208;-86
2021/04/11 01:57:50;;;;;;;18.83;12.07;;;4.80;94.20;;;;;;5055227;28;20204;-85
2021/04/11 02:00:35;;;;;;;19.37;11.93;;;4.80;94.10;;;;;;5037405;28;20177;-85
2021/04/11 02:03:12;;;;;;;22.57;13.00;;;4.80;94.10;;;;;;5037293;28;20178;-85
2021/04/11 02:05:43;;;;;;;24.47;12.23;;;4.90;94.20;;;;;;5037212;28;20203;-85
2021/04/11 02:08:11;;;;;;;25.57;12.90;;;4.90;94.20;;;;;;5037185;28;20358;-86
2021/04/11 02:10:42;;;;;;;21.73;11.03;;;5.00;94.20;;;;;;5037354;28;20176;-85
2021/04/11 02:13:09;;;;;;;16.70;11.90;;;5.00;94.10;;;;;;5037145;28;20540;-85
2021/04/11 02:15:40;;;;;;;27.30;13.23;;;5.00;94.10;;;;;;5037135;28;20190;-86
2021/04/11 02:18:06;;;;;;;19.20;12.73;;;5.10;94.10;;;;;;5054961;28;20633;-85
2021/04/11 02:20:33;;;;;;;22.73;14.50;;;5.00;94.20;;;;;;5054875;28;20594;-86
2021/04/11 02:22:59;;;;;;;24.70;15.93;;;5.10;94.20;;;;;;5054755;28;20253;-86
2021/04/11 02:25:29;;;;;;;31.40;16.93;;;5.10;94.20;;;;;;5036903;28;20228;-86
2021/04/11 02:27:55;;;;;;;28.93;16.57;;;5.20;94.20;;;;;;5037512;28;20578;-86
2021/04/11 02:30:24;;;;;;;24.33;16.20;;;5.20;94.20;;;;;;5036838;28;20180;-86
2021/04/11 02:32:50;;;;;;;27.13;16.37;;;5.20;94.20;;;;;;5054234;28;20206;-86
2021/04/11 02:35:21;;;;;;;25.97;15.20;;;5.20;94.30;;;;;;5036671;28;20184;-86
2021/04/11 02:37:52;;;;;;;22.80;13.77;;;5.30;94.30;;;;;;5036006;28;20763;-86
2021/04/11 02:40:31;;;;;;;25.23;14.60;;;5.30;94.30;;;;;;5036681;28;20273;-86
2021/04/11 02:42:59;;;;;;;21.30;13.07;;;5.30;94.40;;;;;;5054471;28;20290;-86
2021/04/11 02:45:28;;;;;;;22.73;14.13;;;5.30;94.40;;;;;;5054300;28;20290;-86
2021/04/11 02:47:55;;;;;;;23.70;14.33;;;5.40;94.40;;;;;;5036300;28;20198;-86
2021/04/11 02:50:25;;;;;;;28.03;16.23;;;5.50;94.50;;;;;;5036448;28;20620;-85
2021/04/11 02:52:57;;;;;;;24.90;13.77;;;5.40;94.40;;;;;;5054442;28;20179;-86
2021/04/11 02:55:25;;;;;;;24.70;15.40;;;5.50;94.50;;;;;;5036281;28;20178;-86
2021/04/11 02:57:55;;;;;;;26.07;17.73;;;5.50;94.50;;;;;;5054137;28;20679;-86
2021/04/11 03:00:23;;;;;;;26.30;15.33;;;5.60;94.50;;;;;;5054956;28;20179;-86
2021/04/11 03:02:49;;;;;;;26.33;17.30;;;5.70;94.50;;;;;;5036764;28;20207;-85
2021/04/11 03:05:19;;;;;;;29.43;17.13;;;5.70;94.50;;;;;;5053903;28;20287;-86
2021/04/11 03:07:51;;;;;;;32.17;19.03;;;5.80;94.50;;;;;;5054204;28;20621;-86
2021/04/11 03:10:25;;;;;;;27.93;18.20;;;5.80;94.50;;;;;;5035969;28;20180;-86
2021/04/11 03:12:53;;;;;;;27.80;18.00;;;5.80;94.50;;;;;;5035971;28;20167;-86
2021/04/11 03:15:20;;;;;;;32.53;18.87;;;5.80;94.50;;;;;;5053881;28;20176;-86
2021/04/11 03:17:51;;;;;;;30.00;18.50;;;5.90;94.60;;;;;;5035819;28;20199;-86
2021/04/11 03:20:26;;;;;;;31.30;19.53;;;5.90;94.60;;;;;;5053738;28;20168;-86
2021/04/11 03:22:57;;;;;;;28.13;17.97;;;5.90;94.50;;;;;;5053705;28;20170;-86
2021/04/11 03:25:24;;;;;;;27.00;17.13;;;6.00;94.60;;;;;;5035770;28;20220;-86
2021/04/11 03:28:01;;;;;;;26.37;17.47;;;6.00;94.50;;;;;;5053546;28;20192;-86
2021/04/11 03:30:41;;;;;;;27.73;19.13;;;6.10;94.50;;;;;;5053556;28;20540;-86
2021/04/11 03:33:18;;;;;;;29.67;17.93;;;6.10;94.50;;;;;;5035659;28;20169;-86
2021/04/11 03:35:47;;;;;;;29.60;18.23;;;6.10;94.50;;;;;;5035595;28;20598;-85
2021/04/11 03:38:17;;;;;;;27.30;19.33;;;6.10;94.50;;;;;;5035415;28;20208;-85
2021/04/11 03:40:45;;;;;;;30.77;19.93;;;6.10;94.50;;;;;;5035528;28;20164;-85
2021/04/11 03:43:35;;;;;;;27.60;18.60;;;6.20;94.50;;;;;;5035682;28;20553;-85
2021/04/11 03:46:09;;;;;;;30.17;19.87;;;6.20;94.60;;;;;;5035358;28;20255;-86
2021/04/11 03:48:42;;;;;;;30.57;21.07;;;6.20;94.60;;;;;;5034975;28;20551;-86
2021/04/11 03:51:15;;;;;;;31.83;19.97;;;6.20;94.60;;;;;;5035249;28;20533;-86
2021/04/11 03:54:10;;;;;;;32.23;22.23;;;6.30;94.70;;;;;;5035535;28;20610;-86
2021/04/11 03:56:40;;;;;;;30.93;22.10;;;6.20;94.70;;;;;;5053231;28;20174;-86
2021/04/11 03:59:06;;;;;;;33.73;22.67;;;6.30;94.70;;;;;;5035242;28;20199;-86
2021/04/11 04:01:39;;;;;;;34.60;21.40;;;6.30;94.70;;;;;;5053322;28;20172;-86
2021/04/11 04:04:12;;;;;;;35.57;24.43;;;6.30;94.80;;;;;;5035233;28;20164;-86
2021/04/11 04:06:37;;;;;;;34.87;24.50;;;6.30;94.70;;;;;;5035125;28;20203;-86
2021/04/11 04:09:05;;;;;;;36.10;24.50;;;6.40;94.80;;;;;;5052984;28;20198;-86
2021/04/11 04:11:42;;;;;;;32.80;24.57;;;6.40;94.80;;;;;;5052954;28;20174;-86
2021/04/11 04:14:29;;;;;;;38.13;26.33;;;6.30;94.80;;;;;;5035191;28;20176;-86
2021/04/11 04:17:30;;;;;;;40.40;27.73;;;6.40;94.80;;;;;;5052978;28;20166;-86
2021/04/11 04:20:01;;;;;;;38.83;26.87;;;6.40;94.80;;;;;;5035134;28;20165;-86
2021/04/11 04:22:59;;;;;;;37.57;27.30;;;6.40;94.80;;;;;;5035096;28;20164;-86
2021/04/11 04:25:45;;;;;;;40.30;28.47;;;6.40;94.90;;;;;;4995286;28;20208;-86
2021/04/11 04:28:35;;;;;;;41.63;28.03;;;6.50;94.90;;;;;;5052741;28;20226;-86
2021/04/11 04:31:11;;;;;;;39.03;27.83;;;6.60;94.90;;;;;;5036708;28;20158;-86
2021/04/11 04:33:40;;;;;;;37.07;26.73;;;6.50;94.90;;;;;;5034987;28;20211;-86
2021/04/11 04:36:16;;;;;;;38.80;27.97;;;6.60;94.90;;;;;;5052805;28;20663;-86
2021/04/11 04:38:59;;;;;;;39.90;27.67;;;6.60;94.90;;;;;;5034987;28;20224;-86
2021/04/11 04:41:47;;;;;;;39.43;29.20;;;6.60;94.90;;;;;;5034925;28;20179;-86
2021/04/11 04:44:39;;;;;;;39.80;28.60;;;6.60;95.00;;;;;;5034898;28;20187;-86
2021/04/11 04:47:31;;;;;;;39.40;28.80;;;6.60;95.00;;;;;;5035686;28;20622;-87
2021/04/11 04:50:00;;;;;;;41.20;29.63;;;6.60;95.00;;;;;;5025768;28;20187;-86
2021/04/11 04:52:30;;;;;;;46.93;31.40;;;6.70;95.10;;;;;;5052885;28;20219;-86
2021/04/11 04:55:02;;;;;;;45.00;32.13;;;6.70;95.10;;;;;;5034785;28;20657;-86
2021/04/11 04:57:36;;;;;;;44.43;32.00;;;6.70;95.10;;;;;;5052514;28;20167;-86
2021/04/11 05:00:16;;;;;;;46.37;33.17;;;6.70;95.10;;;;;;5052475;28;20179;-86
2021/04/11 05:03:06;;;;;;;49.60;34.70;;;6.80;95.10;;;;;;5039297;28;20212;-86
2021/04/11 05:05:38;;;;;;;44.50;33.70;;;6.80;95.10;;;;;;5056216;28;20306;-86
2021/04/11 05:08:14;;;;;;;49.50;35.30;;;6.80;95.10;;;;;;5039085;28;20554;-86
2021/04/11 05:10:51;;;;;;;46.33;33.50;;;6.80;95.10;;;;;;5056247;28;20154;-86
2021/04/11 05:13:19;;;;;;;43.53;33.50;;;6.80;95.10;;;;;;5056205;28;20155;-86
2021/04/11 05:15:48;;;;;;;44.20;32.57;;;6.90;95.10;;;;;;5038146;28;20233;-86
2021/04/11 05:18:36;;;;;;;44.90;32.27;;;6.90;95.10;;;;;;5038011;28;20203;-86
2021/04/11 05:21:07;;;;;;;47.23;32.57;;;6.90;95.10;;;;;;5055980;28;20167;-86
2021/04/11 05:23:48;;;;;;;45.20;33.73;;;7.00;95.10;;;;;;5038144;28;20592;-86
2021/04/11 05:26:25;;;;;;;44.83;32.67;;;7.00;95.10;;;;;;5055889;28;20667;-86
2021/04/11 05:29:02;;;;;;;44.30;31.83;;;7.00;95.10;;;;;;5056032;28;20686;-86
2021/04/11 05:31:31;;;;;;;42.20;30.27;;;7.10;95.10;;;;;;5037928;28;20193;-86
2021/04/11 05:33:57;;;;;;;42.03;30.13;;;7.10;95.00;;;;;;5055731;28;20172;-86
2021/04/11 05:36:41;;;;;;;38.40;30.37;;;7.10;95.10;;;;;;5055742;28;20539;-86
2021/04/11 05:39:31;;;;;;;43.13;30.87;;;7.20;95.00;;;;;;5055575;28;20208;-87
2021/04/11 05:42:03;;;;;;;39.13;29.27;;;7.20;95.00;;;;;;5037732;28;20164;-86
2021/04/11 05:44:46;;;;;;;43.50;31.17;;;7.20;95.10;;;;;;5037525;28;20171;-86
2021/04/11 05:47:32;;;;;;;41.20;30.40;;;7.20;95.00;;;;;;5055415;28;20243;-86
2021/04/11 05:50:05;;;;;;;46.27;32.17;;;7.30;95.00;;;;;;5037812;28;20179;-86
2021/04/11 05:52:48;;;;;;;41.27;30.77;;;7.30;95.00;;;;;;5055367;28;20245;-86
2021/04/11 05:55:16;;;;;;;43.17;31.03;;;7.30;95.00;;;;;;5037464;28;20168;-86
2021/04/11 05:57:50;;;;;;;39.00;30.30;;;7.30;95.00;;;;;;5055186;28;20191;-86
2021/04/11 06:00:25;;;;;;;38.60;30.00;;;7.30;94.90;;;;;;5055601;28;20245;-86
2021/04/11 06:02:54;;;;;;;40.33;30.37;;;7.30;94.90;;;;;;5055125;28;20170;-86
2021/04/11 06:05:42;;;;;;;38.23;30.30;;;7.30;94.90;;;;;;5055341;28;20202;-86
2021/04/11 06:08:29;;;;;;;43.03;29.83;;;7.30;94.90;;;;;;5037221;28;20191;-86
2021/04/11 06:11:07;;;;;;;37.97;29.53;;;7.30;94.80;;;;;;5037268;28;20165;-86
2021/04/11 06:13:47;;;;;;;40.63;29.93;;;7.30;94.80;;;;;;5054038;28;20172;-86
2021/04/11 06:16:20;;;;;;;43.53;32.60;;;7.30;94.80;;;;;;5037079;28;20174;-86
2021/04/11 06:18:50;;;;;;;40.60;30.10;;;7.40;94.90;;;;;;5054861;28;20217;-86
2021/04/11 06:21:47;;;;;;;42.00;31.87;;;7.50;94.90;;;;;;5036971;28;20550;-86
2021/04/11 06:24:40;;;;;;;38.73;29.13;;;7.50;94.90;;;;;;5003372;28;20752;-86
2021/04/11 06:27:10;;;;;;;44.03;31.23;;;7.50;94.90;;;;;;5054786;28;20628;-86
2021/04/11 06:30:01;;;;;;;41.93;30.67;;;7.60;94.90;;;;;;5037123;28;20180;-86
2021/04/11 06:32:44;;;;;;;45.53;31.97;;;7.60;94.90;;;;;;5036413;28;20206;-86
2021/04/11 06:35:13;;;;;;;40.10;30.13;;;7.60;94.90;;;;;;5036662;28;20214;-86
2021/04/11 06:37:42;;;;;;;45.83;33.17;;;7.70;94.90;;;;;;5054518;28;20600;-87
2021/04/11 06:40:46;;;;;;;41.33;31.83;;;7.70;94.90;;;;;;5054398;28;20195;-86
2021/04/11 06:43:34;;;;;;;43.57;31.90;;;7.70;94.90;;;;;;5054426;28;20153;-86
2021/04/11 06:46:06;;;;;;;47.40;33.23;;;7.70;94.80;;;;;;5037023;28;20196;-86
2021/04/11 06:48:48;;;;;;;45.43;34.27;;;7.70;94.90;;;;;;5054421;28;20203;-86
2021/04/11 06:51:14;;;;;;;43.23;32.30;;;7.70;94.90;;;;;;5036368;28;20167;-86
2021/04/11 06:53:58;;;;;;;46.33;32.77;;;7.70;94.90;;;;;;5054178;28;20172;-86
2021/04/11 06:57:07;;;;;;;45.57;33.80;;;7.70;94.90;;;;;;5036348;28;20255;-87
2021/04/11 06:59:44;;;;;;;44.00;32.83;;;7.80;94.90;;;;;;5045130;28;20286;-86
2021/04/11 07:02:34;;;;;;;44.77;33.97;;;7.80;94.90;;;;;;5054270;28;20233;-86
2021/04/11 07:05:25;;;;;;;51.57;33.47;;;7.80;94.90;;;;;;5036080;28;20573;-86
2021/04/11 07:08:07;;;;;;;43.53;31.77;;;7.90;94.90;;;;;;5054057;28;20529;-86
2021/04/11 07:11:10;;;;;;;47.20;33.83;;;7.90;94.90;;;;;;5036995;28;20172;-86
2021/04/11 07:13:45;;;;;;;42.23;33.17;;;7.90;94.90;;;;;;5036088;28;20646;-86
2021/04/11 07:16:47;;;;;;;46.60;34.53;;;7.90;94.90;;;;;;5054081;28;20526;-87
2021/04/11 07:19:42;;;;;;;45.17;34.67;;;7.90;94.90;;;;;;5036017;28;20600;-86
2021/04/11 07:22:32;;;;;;;47.37;34.53;;;8.00;94.90;;;;;;5036768;28;20187;-86
2021/04/11 07:25:24;;;;;;;42.17;32.87;;;8.10;95.00;;;;;;5053495;28;20239;-86
2021/04/11 07:27:49;;;;;;;44.47;33.70;;;8.10;94.90;;;;;;5053671;28;20198;-86
2021/04/11 07:30:53;;;;;;;48.30;34.87;;;8.20;94.90;;;;;;5053799;28;20259;-86
2021/04/11 07:33:57;;;;;;;48.20;33.47;;;8.20;94.90;;;;;;5003006;28;20184;-86
2021/04/11 07:36:45;;;;;;;53.30;36.40;;;8.30;95.00;;;;;;5035562;28;20585;-86
2021/04/11 07:39:41;;;;;;;54.70;37.20;;;8.30;95.10;;;;;;5053388;28;20208;-86
2021/04/11 07:42:10;;;;;;;52.90;36.23;;;8.30;95.10;;;;;;5035552;28;20204;-86
2021/04/11 07:45:09;;;;;;;53.10;36.30;;;8.40;95.10;;;;;;5035431;28;20180;-86
2021/04/11 07:47:49;;;;;;;50.40;36.00;;;8.50;95.10;;;;;;5035358;28;20199;-87
2021/04/11 07:50:27;;;;;;;54.93;37.67;;;8.50;95.20;;;;;;5035407;28;20225;-86
2021/04/11 07:53:20;;;;;;;53.93;37.20;;;8.60;95.20;;;;;;5035392;28;20183;-87
2021/04/11 07:55:57;;;;;;;52.67;34.37;;;8.70;95.20;;;;;;5035296;28;20164;-86
2021/04/11 07:58:32;;;;;;;52.43;36.43;;;8.70;95.20;;;;;;5035218;28;20211;-86
2021/04/11 08:01:15;;;;;;;52.83;36.43;;;8.80;95.30;;;;;;5035326;28;20306;-86
2021/04/11 08:04:21;;;;;;;46.73;33.97;;;8.80;95.20;;;;;;5035340;28;20175;-86
2021/04/11 08:07:11;;;;;;;49.60;32.90;;;8.90;95.30;;;;;;5035698;28;20223;-86
2021/04/11 08:09:44;;;;;;;45.17;32.27;;;9.00;95.30;;;;;;5053146;28;20707;-86
2021/04/11 08:12:25;;;;;;;41.20;30.23;;;9.10;95.30;;;;;;5035160;28;20167;-86
2021/04/11 08:15:09;;;;;;;49.00;31.03;;;9.00;95.30;;;;;;5035078;28;20289;-87
2021/04/11 08:18:11;;;;;;;42.20;31.23;;;9.10;95.20;;;;;;5035050;28;20200;-86
2021/04/11 08:20:53;;;;;;;45.17;31.97;;;9.20;95.10;;;;;;5053307;28;20163;-86
2021/04/11 08:23:36;;;;;;;43.37;31.90;;;9.20;95.10;;;;;;5052927;28;20153;-86
2021/04/11 08:26:17;;;;;;;38.77;29.60;;;9.30;95.00;;;;;;5034917;28;20196;-86
2021/04/11 08:29:07;;;;;;;34.00;26.53;;;9.40;95.00;;;;;;5034925;28;20564;-86
2021/04/11 08:31:54;;;;;;;31.53;23.47;;;9.40;95.00;;;;;;5052870;28;20164;-85
2021/04/11 08:34:38;;;;;;;29.27;23.43;;;9.50;94.80;;;;;;5034951;28;20164;-85
2021/04/11 08:37:42;;;;;;;27.50;21.50;;;9.50;94.70;;;;;;5056238;28;20315;-85
2021/04/11 08:40:15;;;;;;;23.57;18.33;;;9.50;94.30;;;;;;5056583;28;20199;-85
2021/04/11 08:43:10;;;;;;;19.83;15.70;;;9.50;94.10;;;;;;5039038;28;20183;-85
2021/04/11 08:46:02;;;;;;;22.67;16.97;;;9.50;93.70;;;;;;5038610;28;20320;-85
2021/04/11 08:48:46;;;;;;;26.10;20.10;;;9.60;93.50;;;;;;5056740;28;20195;-85
2021/04/11 08:51:34;;;;;;;25.53;18.00;;;9.60;93.30;;;;;;5039576;28;20168;-85
2021/04/11 08:54:37;;;;;;;20.73;17.37;;;9.60;93.20;;;;;;5043814;28;20188;-85
2021/04/11 08:57:24;;;;;;;26.90;20.97;;;9.70;93.30;;;;;;5038548;28;20214;-85
2021/04/11 09:00:14;;;;;;;24.37;19.80;;;9.70;93.30;;;;;;5038581;28;20165;-85
2021/04/11 09:03:19;;;;;;;30.03;24.53;;;9.80;93.20;;;;;;5038494;28;20518;-85
2021/04/11 09:06:04;;;;;;;25.73;19.67;;;9.90;93.30;;;;;;5038393;28;20226;-85
2021/04/11 09:09:01;;;;;;;34.67;24.97;;;9.90;92.70;;;;;;5038338;28;20211;-85
2021/04/11 09:11:43;;;;;;;31.57;17.93;;;10.10;92.90;;;;;;5038336;28;20266;-85
2021/04/11 09:14:24;;;;;;;29.97;23.00;;;10.10;92.40;;;;;;5038383;28;20245;-85
2021/04/11 09:17:17;;;;;;;25.57;20.83;;;10.00;91.90;;;;;;5056362;28;20165;-85
2021/04/11 09:19:50;;;;;;;27.73;21.97;;;9.70;91.60;;;;;;5056089;28;20557;-85
2021/04/11 09:22:30;;;;;;;20.57;16.40;;;9.30;92.20;;;;;;5056323;28;20540;-85
2021/04/11 09:25:21;;;;;;;21.27;18.20;;;9.10;91.90;;;;;;5038012;28;20255;-85
2021/04/11 09:28:10;;;;;;;19.90;16.93;;;9.00;92.20;;;;;;5038578;28;20696;-85
2021/04/11 09:31:12;;;;;;;19.33;17.30;;;9.20;92.40;;;;;;5055876;28;20157;-85
2021/04/11 09:33:54;;;;;;;16.90;13.77;;;9.30;92.60;;;;;;5055813;28;20621;-86
2021/04/11 09:36:42;;;;;;;16.80;13.27;;;9.20;91.30;;;;;;5055827;28;20205;-86
2021/04/11 09:39:31;;;;;;;16.97;14.83;;;9.20;91.30;;;;;;5055729;28;20757;-87
2021/04/11 09:42:42;;;;;;;15.80;14.00;;;9.30;91.70;;;;;;5055736;28;20161;-86
2021/04/11 09:45:28;;;;;;;14.83;13.33;;;9.30;91.50;;;;;;4958723;28;20206;-86
2021/04/11 09:48:12;;;;;;;14.80;13.20;;;9.00;91.30;;;;;;4957264;28;20728;-86
2021/04/11 09:50:38;;;;;;;15.03;13.53;;;8.80;90.90;;;;;;5016578;28;20192;-86
2021/04/11 09:53:43;;;;;;;14.33;12.40;;;8.90;91.60;;;;;;5037559;28;20178;-86
2021/04/11 09:56:32;;;;;;;15.73;14.03;;;8.90;91.80;;;;;;5055603;28;20171;-86
2021/04/11 09:59:03;;;;;;;14.50;13.00;;;8.60;91.50;;;;;;5055371;28;20200;-86
2021/04/11 10:01:57;;;;;;;16.47;14.77;;;8.60;91.10;;;;;;5037571;28;20613;-86
2021/04/11 10:05:01;;;;;;;13.60;12.13;;;8.40;91.50;;;;;;5037503;28;20222;-85
2021/04/11 10:07:57;;;;;;;16.60;13.80;;;8.30;90.90;;;;;;5008964;28;20191;-85
2021/04/11 10:10:45;;;;;;;12.17;9.93;;;8.30;91.20;;;;;;5037277;28;20254;-85
2021/04/11 10:13:16;;;;;;;13.03;11.63;;;8.30;90.60;;;;;;5037294;28;20175;-85
2021/04/11 10:15:54;;;;;;;12.10;10.73;;;8.30;91.40;;;;;;5055324;28;20160;-85
2021/04/11 10:18:41;;;;;;;10.97;9.87;;;8.30;90.40;;;;;;5055207;28;20198;-85
2021/04/11 10:21:23;;;;;;;10.97;9.47;;;8.20;89.80;;;;;;5037505;28;20164;-84
2021/04/11 10:24:22;;;;;;;9.13;8.23;;;7.90;89.80;;;;;;5055015;28;20166;-84
2021/04/11 10:27:19;;;;;;;10.80;8.03;;;7.80;90.40;;;;;;5055221;28;20207;-84
2021/04/11 10:29:46;;;;;;;7.80;6.87;;;7.70;90.20;;;;;;5037551;28;20164;-85
2021/04/11 10:32:35;;;;;;;11.47;9.43;;;7.70;90.00;;;;;;5037283;28;20172;-84
2021/04/11 10:35:07;;;;;;;13.73;9.47;;;7.60;90.70;;;;;;5055371;28;20257;-84
2021/04/11 10:37:54;;;;;;;11.03;9.33;;;7.60;90.80;;;;;;5055234;28;20200;-84
2021/04/11 10:40:57;;;;;;;8.97;7.70;;;7.60;90.30;;;;;;5054845;28;20186;-83
2021/04/11 10:44:00;;;;;;;7.77;6.97;;;7.40;89.60;;;;;;5054660;28;20186;-84
2021/04/11 10:46:54;;;;;;;9.33;8.00;;;7.30;89.60;;;;;;5054980;28;20672;-85
2021/04/11 10:49:30;;;;;;;7.00;5.93;;;7.30;90.00;;;;;;5030492;28;20570;-85
2021/04/11 10:52:08;;;;;;;9.07;8.13;;;7.30;89.90;;;;;;5054688;28;20166;-85
2021/04/11 10:54:56;;;;;;;9.00;8.03;;;7.20;90.20;;;;;;5037324;28;20179;-85
2021/04/11 10:57:41;;;;;;;8.33;7.47;;;7.10;90.30;;;;;;5036934;28;20221;-85
2021/04/11 11:00:42;;;;;;;8.07;7.23;;;7.10;89.80;;;;;;5036114;28;20597;-86
2021/04/11 11:03:20;;;;;;;9.20;7.47;;;7.10;89.60;;;;;;5054400;28;20178;-86
2021/04/11 11:06:13;;;;;;;9.63;7.70;;;7.10;89.40;;;;;;5036385;28;20247;-86
2021/04/11 11:09:09;;;;;;;10.53;7.20;;;7.20;90.00;;;;;;5026288;28;20213;-86
2021/04/11 11:11:40;;;;;;;8.80;5.93;;;7.00;89.50;;;;;;5054686;28;20162;-86
2021/04/11 11:14:37;;;;;;;15.80;8.03;;;6.90;90.00;;;;;;5035984;28;20189;-85
2021/04/11 11:17:17;;;;;;;14.70;8.07;;;6.90;89.90;;;;;;5035967;28;20200;-85
2021/04/11 11:20:07;;;;;;;11.00;7.50;;;6.80;89.80;;;;;;5035970;28;20173;-85
2021/04/11 11:23:12;;;;;;;11.10;8.97;;;6.80;89.40;;;;;;5036340;28;20166;-85
2021/04/11 11:26:09;;;;;;;13.50;9.80;;;6.80;89.40;;;;;;5035719;28;20266;-85
2021/04/11 11:29:07;;;;;;;16.80;11.00;;;6.90;89.70;;;;;;5036024;28;20559;-85
2021/04/11 11:32:10;;;;;;;10.50;8.87;;;6.90;89.50;;;;;;5035921;28;20178;-85
2021/04/11 11:35:08;;;;;;;12.90;11.60;;;6.90;89.30;;;;;;5053661;28;20177;-84
2021/04/11 11:37:48;;;;;;;14.93;13.17;;;7.00;90.00;;;;;;5053494;28;20207;-84
2021/04/11 11:40:32;;;;;;;13.43;11.40;;;6.60;89.10;;;;;;5053905;28;20533;-84
2021/04/11 11:43:29;;;;;;;12.60;9.80;;;6.50;88.30;;;;;;5035543;28;20168;-84
2021/04/11 11:46:16;;;;;;;9.30;7.90;;;6.50;88.30;;;;;;5053803;28;20540;-84
2021/04/11 11:49:15;;;;;;;11.00;8.53;;;6.50;88.20;;;;;;5035963;28;20215;-84
2021/04/11 11:52:03;;;;;;;8.97;7.10;;;6.60;88.20;;;;;;5035573;28;20214;-84
2021/04/11 11:54:46;;;;;;;7.13;5.73;;;6.70;88.40;;;;;;5035477;28;20185;-84
2021/04/11 11:57:30;;;;;;;4.77;4.23;;;6.80;88.20;;;;;;5035445;28;20181;-84
2021/04/11 12:00:16;;;;;;;6.20;4.27;;;6.60;88.00;;;;;;5035543;28;20622;-84
2021/04/11 12:02:49;;;;;;;7.47;4.50;;;6.60;88.00;;;;;;5034958;28;20200;-84
2021/04/11 12:05:39;;;;;;;6.57;3.93;;;6.50;87.50;;;;;;5035380;28;20583;-84
2021/04/11 12:08:27;;;;;;;4.97;4.10;;;6.50;87.70;;;;;;5053529;28;20193;-84
2021/04/11 12:11:01;;;;;;;4.50;4.03;;;6.30;87.00;;;;;;5052616;28;20536;-84
2021/04/11 12:13:32;;;;;;;5.57;4.30;;;6.30;88.00;;;;;;5035236;28;20664;-84
2021/04/11 12:16:12;;;;;;;4.60;4.10;;;6.30;87.10;;;;;;5053331;28;20182;-84
2021/04/11 12:18:59;;;;;;;4.87;3.60;;;6.30;87.20;;;;;;5053479;28;20200;-84
2021/04/11 12:21:40;;;;;;;5.97;3.33;;;6.40;86.70;;;;;;5018869;28;20185;-84
2021/04/11 12:24:19;;;;;;;5.03;3.70;;;6.20;87.00;;;;;;5053258;28;20176;-84
2021/04/11 12:26:56;;;;;;;6.10;3.87;;;6.30;87.70;;;;;;5035248;28;20266;-83
2021/04/11 12:29:29;;;;;;;3.63;3.13;;;6.20;87.40;;;;;;5053107;28;20200;-84
2021/04/11 12:32:19;;;;;;;4.17;3.00;;;6.20;87.20;;;;;;5053134;28;20203;-83
2021/04/11 12:34:48;;;;;;;5.07;3.77;;;6.20;87.00;;;;;;5035344;28;20168;-84
2021/04/11 12:37:36;;;;;;;8.80;3.50;;;6.10;87.50;;;;;;5035029;28;20183;-83
2021/04/11 12:40:20;;;;;;;3.93;3.20;;;6.00;87.20;;;;;;5052996;28;20196;-84
2021/04/11 12:42:48;;;;;;;3.83;2.70;;;5.90;86.70;;;;;;5035069;28;20667;-84
2021/04/11 12:45:38;;;;;;;3.20;2.90;;;6.00;86.80;;;;;;5053166;28;20203;-84
2021/04/11 12:48:22;;;;;;;3.37;2.70;;;5.90;86.80;;;;;;5034986;28;20200;-83
2021/04/11 12:51:03;;;;;;;2.83;2.53;;;5.90;87.00;;;;;;5052793;28;20180;-83
2021/04/11 12:53:44;;;;;;;2.27;2.07;;;5.80;86.60;;;;;;5035541;28;20168;-83
2021/04/11 12:56:18;;;;;;;3.67;1.97;;;5.80;86.30;;;;;;5053349;28;20217;-84
2021/04/11 12:59:16;;;;;;;3.87;2.30;;;5.80;86.50;;;;;;5052895;28;20192;-84
2021/04/11 13:01:46;;;;;;;2.70;2.50;;;5.70;86.50;;;;;;5052922;28;20171;-84
2021/04/11 13:04:25;;;;;;;4.30;2.20;;;5.80;86.90;;;;;;5052787;28;20506;-84
2021/04/11 13:06:59;;;;;;;3.93;2.30;;;5.80;86.60;;;;;;5034866;28;20195;-83
2021/04/11 13:09:37;;;;;;;2.33;1.90;;;5.70;87.30;;;;;;5052747;28;20199;-83
2021/04/11 13:12:05;;;;;;;2.47;2.23;;;5.70;87.00;;;;;;5052710;28;20695;-84
2021/04/11 13:15:09;;;;;;;3.63;2.63;;;5.50;86.80;;;;;;5052621;28;20182;-84
2021/04/11 13:17:42;;;;;;;2.27;2.13;;;5.50;86.80;;;;;;5052657;28;20187;-83
2021/04/11 13:20:18;;;;;;;4.97;2.63;;;5.40;86.20;;;;;;5034714;28;20729;-84
2021/04/11 13:22:54;;;;;;;5.57;2.57;;;5.50;86.90;;;;;;5055318;28;20217;-83
2021/04/11 13:25:34;;;;;;;3.47;2.07;;;5.50;86.60;;;;;;5056179;28;20279;-83
2021/04/11 13:28:12;;;;;;;4.67;2.40;;;5.50;86.80;;;;;;5038270;28;20283;-84
2021/04/11 13:31:00;;;;;;;2.90;2.30;;;5.70;86.40;;;;;;5038360;28;20550;-83
2021/04/11 13:33:32;;;;;;;2.87;2.43;;;5.50;85.50;;;;;;5056569;28;20163;-84
2021/04/11 13:36:00;;;;;;;2.07;1.97;;;5.70;86.50;;;;;;5056327;28;20609;-84
2021/04/11 13:38:31;;;;;;;2.30;2.10;;;5.60;85.30;;;;;;5038019;28;20247;-84
2021/04/11 13:41:29;;;;;;;3.60;1.93;;;5.60;84.60;;;;;;5038199;28;20537;-84
2021/04/11 13:44:29;;;;;;;3.60;2.33;;;5.60;84.50;;;;;;5038220;28;20524;-85
2021/04/11 13:47:05;;;;;;;4.97;2.23;;;5.60;85.00;;;;;;5037942;28;20571;-83